createdAt,value
2017-12-15T00:00:34.882Z,916.1
2017-12-15T00:01:40.773Z,916.1
2017-12-15T00:02:45.632Z,916
2017-12-15T00:03:53.887Z,916.1
2017-12-15T00:04:56.973Z,916.8
2017-12-15T00:06:01.582Z,916.1
2017-12-15T00:07:06.426Z,911.9
2017-12-15T00:08:14.627Z,916.1
2017-12-15T00:09:20.416Z,915.4
2017-12-15T00:10:27.300Z,916.1
2017-12-15T00:11:32.588Z,915.8
2017-12-15T00:12:36.734Z,914.9
2017-12-15T00:13:41.021Z,916
2017-12-15T00:14:46.434Z,916
2017-12-15T00:15:50.531Z,916
2017-12-15T00:16:55.980Z,916
2017-12-15T00:18:00.605Z,916
2017-12-15T00:19:08.315Z,916.8
2017-12-15T00:20:12.134Z,916
2017-12-15T00:21:15.579Z,916
2017-12-15T00:22:22.023Z,916
2017-12-15T00:23:26.599Z,916
2017-12-15T00:24:34.649Z,916
2017-12-15T00:25:40.542Z,916.8
2017-12-15T00:26:43.951Z,916
2017-12-15T00:27:47.842Z,916.1
2017-12-15T00:28:51.444Z,916
2017-12-15T00:29:58.270Z,915.9
2017-12-15T00:31:02.112Z,912.5
2017-12-15T00:32:05.590Z,915.8
2017-12-15T00:33:09.522Z,915.8
2017-12-15T00:34:12.638Z,916.7
2017-12-15T00:35:16.053Z,916
2017-12-15T00:36:19.581Z,915.8
2017-12-15T00:37:27.353Z,915.8
2017-12-15T00:38:30.705Z,915.7
2017-12-15T00:39:35.399Z,915.7
2017-12-15T00:40:43.098Z,915.7
2017-12-15T00:41:46.580Z,915.5
2017-12-15T00:42:51.116Z,915.5
2017-12-15T00:43:54.829Z,915.5
2017-12-15T00:44:58.227Z,915.5
2017-12-15T00:46:01.579Z,915.3
2017-12-15T00:47:05.838Z,916.2
2017-12-15T00:48:10.067Z,916.1
2017-12-15T00:49:13.409Z,915.2
2017-12-15T00:50:18.252Z,915.1
2017-12-15T00:51:26.375Z,915.1
2017-12-15T00:52:30.993Z,914.9
2017-12-15T00:53:34.559Z,914.8
2017-12-15T00:54:38.002Z,914.7
2017-12-15T00:55:42.090Z,914.7
2017-12-15T00:56:47.074Z,914.8
2017-12-15T00:57:50.575Z,914.8
2017-12-15T00:58:55.406Z,914.8
2017-12-15T00:59:59.427Z,915.7
2017-12-15T01:01:02.925Z,914.9
2017-12-15T01:02:10.502Z,914.8
2017-12-15T01:03:14.069Z,914.9
2017-12-15T01:04:21.293Z,914.8
2017-12-15T01:05:26.985Z,914.8
2017-12-15T01:06:33.654Z,914.8
2017-12-15T01:07:40.355Z,914.8
2017-12-15T01:08:43.525Z,914.9
2017-12-15T01:09:48.315Z,914.4
2017-12-15T01:10:55.477Z,914.8
2017-12-15T01:12:01.624Z,914.8
2017-12-15T01:13:11.148Z,914.8
2017-12-15T01:14:16.780Z,915.8
2017-12-15T01:15:22.145Z,914.9
2017-12-15T01:16:27.886Z,915.7
2017-12-15T01:17:32.498Z,914.8
2017-12-15T01:18:37.969Z,914.7
2017-12-15T01:19:43.714Z,914.7
2017-12-15T01:20:50.430Z,915.7
2017-12-15T01:21:58.349Z,911.1
2017-12-15T01:23:01.652Z,914.8
2017-12-15T01:24:15.062Z,914.9
2017-12-15T01:25:21.249Z,914.9
2017-12-15T01:26:24.657Z,914.9
2017-12-15T01:27:29.345Z,915.7
2017-12-15T01:28:33.674Z,914.9
2017-12-15T01:29:39.735Z,914.9
2017-12-15T01:30:46.366Z,914.9
2017-12-15T01:31:53.342Z,915
2017-12-15T01:32:58.011Z,915
2017-12-15T01:34:01.505Z,915
2017-12-15T01:35:09.599Z,915
2017-12-15T01:36:12.898Z,915.8
2017-12-15T01:37:16.314Z,911
2017-12-15T01:38:19.798Z,915.9
2017-12-15T01:39:23.105Z,915.1
2017-12-15T01:40:26.633Z,915.9
2017-12-15T01:41:29.976Z,915.1
2017-12-15T01:42:33.555Z,915
2017-12-15T01:43:36.900Z,915.1
2017-12-15T01:44:40.293Z,915.2
2017-12-15T01:45:47.820Z,915.3
2017-12-15T01:46:51.927Z,911.5
2017-12-15T01:47:56.066Z,915.5
2017-12-15T01:48:59.663Z,916.3
2017-12-15T01:50:03.568Z,915.5
2017-12-15T01:51:08.622Z,916.4
2017-12-15T01:52:11.863Z,915.5
2017-12-15T01:53:15.369Z,915.5
2017-12-15T01:54:19.549Z,915.6
2017-12-15T01:55:23.057Z,915.6
2017-12-15T01:56:30.052Z,915.7
2017-12-15T01:57:33.364Z,915.7
2017-12-15T01:58:37.880Z,915.6
2017-12-15T01:59:41.555Z,915.7
2017-12-15T02:00:44.830Z,915.6
2017-12-15T02:01:48.137Z,915.7
2017-12-15T02:02:51.504Z,915.6
2017-12-15T02:03:55.392Z,915.7
2017-12-15T02:04:58.705Z,915.7
2017-12-15T02:06:02.085Z,915.7
2017-12-15T02:07:09.723Z,915.8
2017-12-15T02:08:14.337Z,915.8
2017-12-15T02:09:17.868Z,915.9
2017-12-15T02:10:21.440Z,916
2017-12-15T02:11:25.019Z,916
2017-12-15T02:12:29.199Z,916
2017-12-15T02:13:33.836Z,916.2
2017-12-15T02:14:37.120Z,916.2
2017-12-15T02:15:40.483Z,916.3
2017-12-15T02:16:43.730Z,916.4
2017-12-15T02:17:49.652Z,916.3
2017-12-15T02:18:52.982Z,916.4
2017-12-15T02:19:56.541Z,916.4
2017-12-15T02:21:00.645Z,916.5
2017-12-15T02:22:04.650Z,916.6
2017-12-15T02:23:08.030Z,917.5
2017-12-15T02:24:11.783Z,916.8
2017-12-15T02:25:15.886Z,916.8
2017-12-15T02:26:19.597Z,916.8
2017-12-15T02:27:23.023Z,916.8
2017-12-15T02:28:29.904Z,916.8
2017-12-15T02:29:33.270Z,917.6
2017-12-15T02:30:36.675Z,916.9
2017-12-15T02:31:40.825Z,916.8
2017-12-15T02:32:44.296Z,917
2017-12-15T02:33:47.555Z,916.9
2017-12-15T02:34:51.011Z,916.9
2017-12-15T02:35:54.398Z,916.9
2017-12-15T02:37:00.096Z,916.9
2017-12-15T02:38:03.606Z,917.7
2017-12-15T02:39:11.132Z,916.9
2017-12-15T02:40:14.541Z,917.7
2017-12-15T02:41:17.716Z,917.7
2017-12-15T02:42:21.181Z,916.9
2017-12-15T02:43:24.566Z,916.9
2017-12-15T02:44:27.963Z,916.9
2017-12-15T02:45:32.820Z,916.9
2017-12-15T02:46:36.261Z,916.8
2017-12-15T02:47:39.711Z,916.1
2017-12-15T02:48:46.306Z,916.8
2017-12-15T02:49:56.202Z,916.8
2017-12-15T02:51:02.430Z,916.8
2017-12-15T02:52:06.453Z,916.7
2017-12-15T02:53:12.010Z,915.4
2017-12-15T02:54:15.896Z,916.8
2017-12-15T02:55:20.578Z,916.8
2017-12-15T02:56:27.578Z,916.8
2017-12-15T02:57:32.878Z,916.7
2017-12-15T02:58:36.517Z,916.7
2017-12-15T02:59:41.558Z,916.7
2017-12-15T03:00:49.792Z,916.7
2017-12-15T03:01:53.214Z,916.7
2017-12-15T03:02:56.941Z,916.8
2017-12-15T03:04:01.490Z,916.7
2017-12-15T03:05:04.471Z,916.8
2017-12-15T03:06:08.262Z,917.6
2017-12-15T03:07:11.731Z,916.7
2017-12-15T03:08:15.261Z,916.8
2017-12-15T03:09:18.748Z,916.8
2017-12-15T03:10:24.470Z,916.7
2017-12-15T03:11:32.763Z,916.8
2017-12-15T03:12:35.584Z,916.9
2017-12-15T03:13:40.204Z,916.9
2017-12-15T03:14:44.071Z,917
2017-12-15T03:15:48.238Z,917
2017-12-15T03:16:52.965Z,917
2017-12-15T03:17:56.310Z,917.1
2017-12-15T03:18:59.700Z,917.1
2017-12-15T03:20:03.996Z,917.1
2017-12-15T03:21:07.960Z,917.2
2017-12-15T03:22:15.322Z,917.2
2017-12-15T03:23:18.816Z,917.2
2017-12-15T03:24:22.788Z,917.2
2017-12-15T03:25:26.861Z,917.2
2017-12-15T03:26:30.866Z,917.2
2017-12-15T03:27:34.399Z,917.1
2017-12-15T03:28:39.970Z,917.2
2017-12-15T03:29:44.833Z,917.2
2017-12-15T03:30:48.248Z,917.2
2017-12-15T03:31:51.763Z,917.3
2017-12-15T03:32:58.377Z,917.4
2017-12-15T03:34:01.820Z,917.3
2017-12-15T03:35:05.130Z,917.3
2017-12-15T03:36:09.131Z,917.3
2017-12-15T03:37:12.675Z,917.3
2017-12-15T03:38:16.117Z,917.4
2017-12-15T03:39:20.695Z,917.5
2017-12-15T03:40:23.910Z,917.4
2017-12-15T03:41:31.654Z,917.2
2017-12-15T03:42:36.006Z,917.3
2017-12-15T03:43:42.152Z,917.9
2017-12-15T03:44:45.514Z,913
2017-12-15T03:45:50.260Z,917.1
2017-12-15T03:46:53.582Z,917.1
2017-12-15T03:47:57.689Z,917
2017-12-15T03:49:02.494Z,917
2017-12-15T03:50:06.985Z,917.1
2017-12-15T03:51:13.148Z,917.2
2017-12-15T03:52:17.773Z,917.2
2017-12-15T03:53:23.553Z,917.8
2017-12-15T03:54:35.478Z,916.9
2017-12-15T03:55:40.024Z,917.8
2017-12-15T03:56:48.763Z,916.9
2017-12-15T03:57:52.791Z,917.7
2017-12-15T03:58:58.870Z,916.8
2017-12-15T04:00:06.352Z,916.7
2017-12-15T04:01:10.957Z,916.8
2017-12-15T04:02:14.412Z,916.8
2017-12-15T04:03:20.309Z,916.8
2017-12-15T04:04:26.116Z,916.8
2017-12-15T04:05:33.432Z,916.8
2017-12-15T04:06:40.513Z,916.8
2017-12-15T04:07:43.914Z,916.8
2017-12-15T04:08:49.515Z,916.7
2017-12-15T04:09:55.758Z,916.8
2017-12-15T04:11:03.305Z,917.5
2017-12-15T04:12:08.766Z,917.5
2017-12-15T04:13:14.087Z,916.8
2017-12-15T04:14:20.980Z,916.9
2017-12-15T04:15:24.837Z,916.8
2017-12-15T04:16:36.405Z,916.8
2017-12-15T04:17:43.714Z,916.5
2017-12-15T04:18:49.416Z,916.7
2017-12-15T04:19:55.596Z,916.7
2017-12-15T04:21:01.394Z,916.7
2017-12-15T04:22:06.067Z,916.7
2017-12-15T04:23:09.630Z,916.7
2017-12-15T04:24:14.706Z,916.8
2017-12-15T04:25:18.061Z,917.6
2017-12-15T04:26:21.374Z,917.6
2017-12-15T04:27:29.525Z,913
2017-12-15T04:28:33.257Z,916.7
2017-12-15T04:29:37.217Z,916.8
2017-12-15T04:30:41.245Z,916.8
2017-12-15T04:31:44.671Z,917.6
2017-12-15T04:32:48.105Z,916.8
2017-12-15T04:33:51.571Z,916.9
2017-12-15T04:34:55.013Z,916.9
2017-12-15T04:35:58.821Z,917.8
2017-12-15T04:37:02.110Z,917.9
2017-12-15T04:38:10.135Z,917
2017-12-15T04:39:13.619Z,917
2017-12-15T04:40:17.145Z,917.2
2017-12-15T04:41:22.312Z,917.2
2017-12-15T04:42:25.693Z,917.1
2017-12-15T04:43:28.874Z,917.2
2017-12-15T04:44:32.875Z,917.3
2017-12-15T04:45:36.346Z,917.3
2017-12-15T04:46:40.137Z,917.4
2017-12-15T04:47:43.613Z,917.3
2017-12-15T04:48:52.365Z,917.3
2017-12-15T04:49:56.324Z,917.4
2017-12-15T04:50:59.789Z,917.4
2017-12-15T04:52:03.256Z,917.4
2017-12-15T04:53:07.452Z,918.1
2017-12-15T04:54:10.888Z,917.4
2017-12-15T04:55:15.469Z,917.3
2017-12-15T04:56:20.432Z,917.3
2017-12-15T04:57:24.118Z,917.3
2017-12-15T04:58:28.216Z,917.3
2017-12-15T04:59:35.853Z,917.2
2017-12-15T05:00:39.976Z,917.3
2017-12-15T05:01:44.384Z,917.3
2017-12-15T05:02:48.160Z,917.3
2017-12-15T05:03:52.162Z,917.3
2017-12-15T05:04:57.203Z,917.3
2017-12-15T05:06:00.754Z,918
2017-12-15T05:07:08.015Z,917.3
2017-12-15T05:08:13.673Z,917.3
2017-12-15T05:09:20.551Z,917.3
2017-12-15T05:10:29.293Z,917.2
2017-12-15T05:11:33.972Z,917.3
2017-12-15T05:12:39.774Z,917.4
2017-12-15T05:13:45.684Z,917.4
2017-12-15T05:14:49.714Z,917.5
2017-12-15T05:15:54.492Z,917.5
2017-12-15T05:16:57.958Z,917.5
2017-12-15T05:18:03.868Z,917.6
2017-12-15T05:19:08.687Z,917.7
2017-12-15T05:20:16.446Z,917.7
2017-12-15T05:21:28.545Z,917.7
2017-12-15T05:22:33.628Z,917.7
2017-12-15T05:23:39.640Z,917.6
2017-12-15T05:24:50.268Z,917.6
2017-12-15T05:25:56.653Z,917.6
2017-12-15T05:27:03.379Z,915.3
2017-12-15T05:28:14.107Z,918.4
2017-12-15T05:29:40.004Z,917.6
2017-12-15T05:30:51.110Z,917.6
2017-12-15T05:32:01.953Z,917.6
2017-12-15T05:33:23.224Z,917.5
2017-12-15T05:34:38.733Z,917.6
2017-12-15T05:35:50.125Z,917.7
2017-12-15T05:37:00.307Z,917.7
2017-12-15T05:38:05.230Z,918.5
2017-12-15T05:39:20.785Z,918.5
2017-12-15T05:40:27.954Z,917.8
2017-12-15T05:41:39.705Z,917.7
2017-12-15T05:42:50.078Z,917.7
2017-12-15T05:44:02.429Z,917.7
2017-12-15T05:45:14.423Z,918.4
2017-12-15T05:46:21.088Z,917.7
2017-12-15T05:47:35.406Z,917.7
2017-12-15T05:48:45.000Z,917.7
2017-12-15T05:49:59.702Z,918.6
2017-12-15T05:51:09.149Z,917.9
2017-12-15T05:52:18.525Z,917.9
2017-12-15T05:53:31.976Z,917.7
2017-12-15T05:54:40.160Z,918.6
2017-12-15T05:55:52.718Z,917.6
2017-12-15T05:57:08.283Z,917.5
2017-12-15T05:58:17.809Z,918.2
2017-12-15T05:59:25.545Z,918.1
2017-12-15T06:00:36.237Z,917.4
2017-12-15T06:01:40.037Z,917.4
2017-12-15T06:02:54.418Z,917.4
2017-12-15T06:04:02.436Z,917.5
2017-12-15T06:05:11.896Z,918.4
2017-12-15T06:06:20.542Z,918
2017-12-15T06:07:25.366Z,917.8
2017-12-15T06:08:41.128Z,918
2017-12-15T06:09:58.770Z,918
2017-12-15T06:11:05.160Z,918.7
2017-12-15T06:12:14.631Z,918
2017-12-15T06:13:18.965Z,917.9
2017-12-15T06:14:23.138Z,918
2017-12-15T06:15:30.786Z,918.7
2017-12-15T06:16:36.013Z,917.8
2017-12-15T06:17:42.024Z,918
2017-12-15T06:18:45.369Z,917.8
2017-12-15T06:19:56.314Z,917.9
2017-12-15T06:21:05.780Z,918.7
2017-12-15T06:22:11.374Z,917.8
2017-12-15T06:23:15.991Z,917.9
2017-12-15T06:24:20.400Z,917.8
2017-12-15T06:25:26.338Z,917.6
2017-12-15T06:26:33.112Z,917.7
2017-12-15T06:27:36.296Z,917.7
2017-12-15T06:28:41.120Z,917.7
2017-12-15T06:29:44.680Z,918.5
2017-12-15T06:30:52.023Z,917.8
2017-12-15T06:31:58.623Z,918
2017-12-15T06:33:02.124Z,917.8
2017-12-15T06:34:07.762Z,918.6
2017-12-15T06:35:11.395Z,917.8
2017-12-15T06:36:15.409Z,917.9
2017-12-15T06:37:20.136Z,917.8
2017-12-15T06:38:26.519Z,917.9
2017-12-15T06:39:30.157Z,918
2017-12-15T06:40:34.464Z,917.9
2017-12-15T06:41:44.004Z,918
2017-12-15T06:42:47.498Z,918
2017-12-15T06:43:52.148Z,918.9
2017-12-15T06:44:58.274Z,918
2017-12-15T06:46:04.538Z,918.1
2017-12-15T06:47:08.022Z,918.2
2017-12-15T06:48:11.470Z,918.2
2017-12-15T06:49:17.046Z,918.2
2017-12-15T06:50:23.231Z,918.2
2017-12-15T06:51:28.330Z,918.2
2017-12-15T06:52:36.316Z,918.2
2017-12-15T06:53:40.923Z,918.1
2017-12-15T06:54:46.253Z,918.1
2017-12-15T06:55:52.725Z,918.1
2017-12-15T06:56:57.398Z,918.1
2017-12-15T06:58:02.127Z,918.2
2017-12-15T06:59:05.774Z,919
2017-12-15T07:00:08.935Z,918.1
2017-12-15T07:01:15.536Z,918.1
2017-12-15T07:02:19.225Z,918.2
2017-12-15T07:03:28.252Z,918.2
2017-12-15T07:04:31.693Z,918.2
2017-12-15T07:05:39.832Z,919.2
2017-12-15T07:06:43.165Z,918.3
2017-12-15T07:07:48.424Z,918.3
2017-12-15T07:08:52.323Z,918.3
2017-12-15T07:09:55.657Z,918.3
2017-12-15T07:10:59.153Z,918.3
2017-12-15T07:12:02.639Z,919.2
2017-12-15T07:13:06.743Z,918.3
2017-12-15T07:14:13.499Z,918.7
2017-12-15T07:15:17.693Z,918.4
2017-12-15T07:16:21.126Z,918.3
2017-12-15T07:17:24.682Z,919
2017-12-15T07:18:28.363Z,918.2
2017-12-15T07:19:32.422Z,919.1
2017-12-15T07:20:36.021Z,918.3
2017-12-15T07:21:39.471Z,918.3
2017-12-15T07:22:43.024Z,918.3
2017-12-15T07:23:47.162Z,918.3
2017-12-15T07:24:52.985Z,919.2
2017-12-15T07:26:07.160Z,918.3
2017-12-15T07:27:13.645Z,918.4
2017-12-15T07:28:18.327Z,918.3
2017-12-15T07:29:22.133Z,918.3
2017-12-15T07:30:25.638Z,919.2
2017-12-15T07:31:32.162Z,918.3
2017-12-15T07:32:35.587Z,918.4
2017-12-15T07:33:44.690Z,918.4
2017-12-15T07:34:59.796Z,918.4
2017-12-15T07:36:09.878Z,918.3
2017-12-15T07:37:13.913Z,918.3
2017-12-15T07:38:18.289Z,918.5
2017-12-15T07:39:31.826Z,918.5
2017-12-15T07:40:35.093Z,918.5
2017-12-15T07:41:39.152Z,918.4
2017-12-15T07:42:43.272Z,918.4
2017-12-15T07:43:47.249Z,918.5
2017-12-15T07:44:52.652Z,918.5
2017-12-15T07:45:55.994Z,918.5
2017-12-15T07:47:02.897Z,919.2
2017-12-15T07:48:06.866Z,918.5
2017-12-15T07:49:10.366Z,918.4
2017-12-15T07:50:13.816Z,918.4
2017-12-15T07:51:17.530Z,918.5
2017-12-15T07:52:21.429Z,918.5
2017-12-15T07:53:24.772Z,918.5
2017-12-15T07:54:28.785Z,918.5
2017-12-15T07:55:32.498Z,917.7
2017-12-15T07:56:37.403Z,919.4
2017-12-15T07:57:44.830Z,918.4
2017-12-15T07:58:50.363Z,918.6
2017-12-15T07:59:54.442Z,918.5
2017-12-15T08:00:58.799Z,918.5
2017-12-15T08:02:04.562Z,918.5
2017-12-15T08:03:09.116Z,915.2
2017-12-15T08:04:13.124Z,918.6
2017-12-15T08:05:16.517Z,918.7
2017-12-15T08:06:20.647Z,918.6
2017-12-15T08:07:23.808Z,918.6
2017-12-15T08:08:30.591Z,918.6
2017-12-15T08:09:33.931Z,919.7
2017-12-15T08:10:37.466Z,918.6
2017-12-15T08:11:41.649Z,918.6
2017-12-15T08:12:45.064Z,918.7
2017-12-15T08:13:48.496Z,919.5
2017-12-15T08:14:51.911Z,918.6
2017-12-15T08:15:55.340Z,918.7
2017-12-15T08:17:00.165Z,919.4
2017-12-15T08:18:03.567Z,918.6
2017-12-15T08:19:11.646Z,919.5
2017-12-15T08:20:14.825Z,918.7
2017-12-15T08:21:18.102Z,918.8
2017-12-15T08:22:21.728Z,918.8
2017-12-15T08:23:26.500Z,919.6
2017-12-15T08:24:29.852Z,918.8
2017-12-15T08:25:37.983Z,918.7
2017-12-15T08:26:41.819Z,918.7
2017-12-15T08:27:45.353Z,918.8
2017-12-15T08:28:49.400Z,918.7
2017-12-15T08:29:57.185Z,914.8
2017-12-15T08:31:00.538Z,918.7
2017-12-15T08:32:04.011Z,918.8
2017-12-15T08:33:07.506Z,918.8
2017-12-15T08:34:10.977Z,919.7
2017-12-15T08:35:14.389Z,918.9
2017-12-15T08:36:21.682Z,918.8
2017-12-15T08:37:24.906Z,918.9
2017-12-15T08:38:28.383Z,918.8
2017-12-15T08:39:33.259Z,918.8
2017-12-15T08:40:42.962Z,918.8
2017-12-15T08:41:47.561Z,918.8
2017-12-15T08:42:52.478Z,918.7
2017-12-15T08:43:55.982Z,918.8
2017-12-15T08:45:00.142Z,918.7
2017-12-15T08:46:03.759Z,918.7
2017-12-15T08:47:07.335Z,918.7
2017-12-15T08:48:10.872Z,919.5
2017-12-15T08:49:14.413Z,918.7
2017-12-15T08:50:17.841Z,918.7
2017-12-15T08:51:24.619Z,918.8
2017-12-15T08:52:28.049Z,918.8
2017-12-15T08:53:36.107Z,919.5
2017-12-15T08:54:39.562Z,918.7
2017-12-15T08:55:43.817Z,918.7
2017-12-15T08:56:47.481Z,918.7
2017-12-15T08:57:50.865Z,918.7
2017-12-15T08:58:54.305Z,919.6
2017-12-15T08:59:57.766Z,918.8
2017-12-15T09:01:01.387Z,918.7
2017-12-15T09:02:11.245Z,918.7
2017-12-15T09:03:14.426Z,918.8
2017-12-15T09:04:17.913Z,918.8
2017-12-15T09:05:21.492Z,919
2017-12-15T09:06:27.887Z,918.9
2017-12-15T09:07:31.492Z,918.9
2017-12-15T09:08:40.692Z,918.9
2017-12-15T09:09:53.945Z,918.9
2017-12-15T09:10:57.432Z,918.9
2017-12-15T09:12:00.923Z,918.9
2017-12-15T09:13:07.972Z,919.8
2017-12-15T09:14:11.563Z,919
2017-12-15T09:15:18.364Z,918.9
2017-12-15T09:16:23.922Z,918.9
2017-12-15T09:17:27.364Z,918.9
2017-12-15T09:18:30.811Z,919
2017-12-15T09:19:34.390Z,919
2017-12-15T09:20:37.817Z,918.9
2017-12-15T09:21:41.291Z,919.7
2017-12-15T09:22:44.810Z,919.8
2017-12-15T09:23:51.941Z,918.9
2017-12-15T09:24:56.077Z,919
2017-12-15T09:25:59.608Z,918.9
2017-12-15T09:27:03.592Z,918.9
2017-12-15T09:28:07.710Z,919
2017-12-15T09:29:11.182Z,919.8
2017-12-15T09:30:14.920Z,919.8
2017-12-15T09:31:18.477Z,919
2017-12-15T09:32:22.196Z,919.1
2017-12-15T09:33:26.360Z,919.1
2017-12-15T09:34:33.270Z,919
2017-12-15T09:35:36.891Z,919
2017-12-15T09:36:40.356Z,919.1
2017-12-15T09:37:43.622Z,919.1
2017-12-15T09:38:47.183Z,919.1
2017-12-15T09:39:50.486Z,919
2017-12-15T09:40:54.968Z,919
2017-12-15T09:41:58.452Z,919.1
2017-12-15T09:43:04.914Z,919
2017-12-15T09:44:20.391Z,919.1
2017-12-15T09:45:27.575Z,919.1
2017-12-15T09:46:31.077Z,919.1
2017-12-15T09:47:34.684Z,919.1
2017-12-15T09:48:38.753Z,919.2
2017-12-15T09:49:42.129Z,919.2
2017-12-15T09:50:47.163Z,919.2
2017-12-15T09:51:50.753Z,919.2
2017-12-15T09:52:54.324Z,919.1
2017-12-15T09:53:57.634Z,919
2017-12-15T09:55:01.019Z,919.1
2017-12-15T09:56:09.124Z,919.1
2017-12-15T09:57:12.566Z,919.1
2017-12-15T09:58:16.112Z,919
2017-12-15T09:59:20.277Z,919.2
2017-12-15T10:00:24.803Z,919.1
2017-12-15T10:01:28.375Z,919.2
2017-12-15T10:02:33.741Z,919.3
2017-12-15T10:03:37.846Z,919.3
2017-12-15T10:04:41.469Z,919.3
2017-12-15T10:05:45.067Z,919.2
2017-12-15T10:06:52.101Z,919.3
2017-12-15T10:08:02.758Z,919.2
2017-12-15T10:09:06.381Z,919.3
2017-12-15T10:10:09.923Z,919.3
2017-12-15T10:11:25.631Z,919.3
2017-12-15T10:12:30.198Z,919.4
2017-12-15T10:13:33.620Z,919.4
2017-12-15T10:14:37.455Z,919.3
2017-12-15T10:15:40.861Z,919.2
2017-12-15T10:16:44.332Z,919.3
2017-12-15T10:17:52.477Z,919.2
2017-12-15T10:18:55.976Z,919.2
2017-12-15T10:19:59.346Z,919
2017-12-15T10:21:02.805Z,919.1
2017-12-15T10:22:06.307Z,919.1
2017-12-15T10:23:09.795Z,919
2017-12-15T10:24:13.131Z,919
2017-12-15T10:25:16.628Z,919
2017-12-15T10:26:20.077Z,919.2
2017-12-15T10:27:23.505Z,919.2
2017-12-15T10:28:30.777Z,919.2
2017-12-15T10:29:34.297Z,919.1
2017-12-15T10:30:37.544Z,918
2017-12-15T10:31:40.989Z,919.1
2017-12-15T10:32:45.260Z,919.1
2017-12-15T10:33:48.666Z,919.1
2017-12-15T10:34:52.164Z,919.2
2017-12-15T10:35:55.584Z,919.1
2017-12-15T10:36:59.351Z,919
2017-12-15T10:38:03.369Z,919
2017-12-15T10:39:10.399Z,919.1
2017-12-15T10:40:13.791Z,919
2017-12-15T10:41:17.286Z,919
2017-12-15T10:42:21.083Z,919.9
2017-12-15T10:43:24.505Z,919
2017-12-15T10:44:28.077Z,919.9
2017-12-15T10:45:31.464Z,919
2017-12-15T10:46:35.119Z,919.1
2017-12-15T10:47:38.931Z,919
2017-12-15T10:48:42.250Z,919.1
2017-12-15T10:49:48.236Z,919.1
2017-12-15T10:50:51.639Z,919
2017-12-15T10:51:54.865Z,919.1
2017-12-15T10:52:59.010Z,919.2
2017-12-15T10:54:03.110Z,919.1
2017-12-15T10:55:06.599Z,919.8
2017-12-15T10:56:10.052Z,919.1
2017-12-15T10:57:13.468Z,919.1
2017-12-15T10:58:17.322Z,919.1
2017-12-15T10:59:22.166Z,919.1
2017-12-15T11:00:29.912Z,919.1
2017-12-15T11:01:33.423Z,919.1
2017-12-15T11:02:37.673Z,919.1
2017-12-15T11:03:40.904Z,919.1
2017-12-15T11:04:44.293Z,919.1
2017-12-15T11:05:47.845Z,919.8
2017-12-15T11:06:51.438Z,919.1
2017-12-15T11:07:56.054Z,919
2017-12-15T11:09:00.871Z,919
2017-12-15T11:10:05.474Z,919
2017-12-15T11:11:13.095Z,919.9
2017-12-15T11:12:17.299Z,919.1
2017-12-15T11:13:20.734Z,919
2017-12-15T11:14:25.041Z,919
2017-12-15T11:15:28.537Z,918.9
2017-12-15T11:16:32.752Z,919
2017-12-15T11:17:36.326Z,919
2017-12-15T11:18:39.900Z,919.8
2017-12-15T11:19:43.570Z,919.8
2017-12-15T11:20:46.974Z,919
2017-12-15T11:21:54.765Z,919
2017-12-15T11:22:58.276Z,919
2017-12-15T11:24:02.608Z,919.1
2017-12-15T11:25:06.044Z,919.8
2017-12-15T11:26:10.269Z,919.9
2017-12-15T11:27:14.276Z,919
2017-12-15T11:28:17.843Z,919
2017-12-15T11:29:21.319Z,919
2017-12-15T11:30:24.708Z,919.1
2017-12-15T11:31:28.746Z,917.1
2017-12-15T11:32:35.703Z,919.1
2017-12-15T11:33:39.231Z,919.8
2017-12-15T11:34:42.492Z,916.5
2017-12-15T11:35:46.470Z,919.8
2017-12-15T11:36:49.958Z,919
2017-12-15T11:37:53.461Z,919.7
2017-12-15T11:38:56.925Z,919
2017-12-15T11:40:00.393Z,919.9
2017-12-15T11:41:03.971Z,919
2017-12-15T11:42:07.462Z,919
2017-12-15T11:43:14.458Z,919
2017-12-15T11:44:17.507Z,919.8
2017-12-15T11:45:20.982Z,919.8
2017-12-15T11:46:25.136Z,919
2017-12-15T11:47:28.886Z,919
2017-12-15T11:48:32.285Z,919.1
2017-12-15T11:49:35.542Z,919.1
2017-12-15T11:50:39.881Z,919.2
2017-12-15T11:51:43.364Z,919.1
2017-12-15T11:52:47.399Z,919.1
2017-12-15T11:53:54.267Z,919.1
2017-12-15T11:54:57.919Z,919
2017-12-15T11:56:01.259Z,919.1
2017-12-15T11:57:04.610Z,919
2017-12-15T11:58:08.138Z,919.8
2017-12-15T11:59:11.651Z,919.1
2017-12-15T12:00:15.104Z,919.8
2017-12-15T12:01:19.235Z,919.8
2017-12-15T12:02:22.378Z,919
2017-12-15T12:03:25.984Z,918.9
2017-12-15T12:04:33.631Z,918.9
2017-12-15T12:05:37.204Z,918.9
2017-12-15T12:06:40.669Z,919
2017-12-15T12:07:43.960Z,919
2017-12-15T12:08:47.262Z,919
2017-12-15T12:09:51.560Z,919
2017-12-15T12:10:54.957Z,919
2017-12-15T12:11:58.265Z,919
2017-12-15T12:13:01.953Z,918.9
2017-12-15T12:14:05.468Z,919
2017-12-15T12:15:12.816Z,919.1
2017-12-15T12:16:16.378Z,919
2017-12-15T12:17:19.774Z,919
2017-12-15T12:18:23.076Z,919.1
2017-12-15T12:19:26.701Z,919.8
2017-12-15T12:20:30.122Z,919
2017-12-15T12:21:33.708Z,919
2017-12-15T12:22:37.325Z,919
2017-12-15T12:23:40.702Z,919
2017-12-15T12:24:44.187Z,919.7
2017-12-15T12:25:51.424Z,919
2017-12-15T12:26:54.856Z,919
2017-12-15T12:27:59.172Z,919.8
2017-12-15T12:29:03.301Z,919.8
2017-12-15T12:30:08.135Z,918.6
2017-12-15T12:31:12.845Z,919
2017-12-15T12:32:19.251Z,919.1
2017-12-15T12:33:23.580Z,919.1
2017-12-15T12:34:28.986Z,919
2017-12-15T12:35:33.146Z,919.8
2017-12-15T12:36:40.417Z,919.1
2017-12-15T12:37:44.388Z,919
2017-12-15T12:38:47.971Z,919.1
2017-12-15T12:39:52.506Z,919.1
2017-12-15T12:40:55.908Z,919.2
2017-12-15T12:41:59.260Z,919
2017-12-15T12:43:02.584Z,919.1
2017-12-15T12:44:06.179Z,919.4
2017-12-15T12:45:09.675Z,919.2
2017-12-15T12:46:13.214Z,919.2
2017-12-15T12:47:20.680Z,919.2
2017-12-15T12:48:24.680Z,919.2
2017-12-15T12:49:28.731Z,919.1
2017-12-15T12:50:32.213Z,919.9
2017-12-15T12:51:36.552Z,920
2017-12-15T12:52:39.964Z,919.1
2017-12-15T12:53:44.090Z,919.9
2017-12-15T12:54:47.459Z,919.1
2017-12-15T12:55:51.311Z,919.1
2017-12-15T12:56:54.913Z,919.1
2017-12-15T12:58:02.722Z,919.1
2017-12-15T12:59:06.339Z,919.1
2017-12-15T13:00:09.977Z,919.1
2017-12-15T13:01:13.434Z,919.2
2017-12-15T13:02:17.505Z,919.2
2017-12-15T13:03:22.086Z,919.2
2017-12-15T13:04:26.223Z,919.2
2017-12-15T13:05:30.225Z,919.2
2017-12-15T13:06:33.776Z,919.1
2017-12-15T13:07:37.302Z,919.6
2017-12-15T13:08:46.115Z,919.1
2017-12-15T13:09:49.529Z,919.1
2017-12-15T13:10:53.039Z,919.3
2017-12-15T13:11:57.296Z,919
2017-12-15T13:13:01.450Z,919.1
2017-12-15T13:14:04.904Z,919.1
2017-12-15T13:15:08.444Z,919
2017-12-15T13:16:12.515Z,917.8
2017-12-15T13:17:16.014Z,919.8
2017-12-15T13:18:19.410Z,919
2017-12-15T13:19:27.019Z,919
2017-12-15T13:20:30.457Z,919.1
2017-12-15T13:21:33.882Z,919
2017-12-15T13:22:37.360Z,919
2017-12-15T13:23:40.814Z,919.1
2017-12-15T13:24:44.281Z,918.9
2017-12-15T13:25:47.755Z,919
2017-12-15T13:26:51.311Z,919.8
2017-12-15T13:27:55.226Z,919
2017-12-15T13:28:58.754Z,919.8
2017-12-15T13:30:05.738Z,919
2017-12-15T13:31:09.048Z,919
2017-12-15T13:32:13.592Z,919.8
2017-12-15T13:33:17.107Z,919
2017-12-15T13:34:20.537Z,919
2017-12-15T13:35:24.024Z,918.9
2017-12-15T13:36:27.358Z,918.9
2017-12-15T13:37:30.853Z,919.7
2017-12-15T13:38:34.298Z,918.9
2017-12-15T13:39:37.726Z,918.9
2017-12-15T13:40:44.690Z,918.8
2017-12-15T13:41:48.271Z,914.8
2017-12-15T13:42:51.685Z,918.9
2017-12-15T13:43:55.175Z,919
2017-12-15T13:44:58.664Z,918.8
2017-12-15T13:46:02.263Z,918.9
2017-12-15T13:47:06.417Z,918.8
2017-12-15T13:49:14.612Z,918.9
2017-12-15T13:50:48.692Z,919
2017-12-15T13:52:13.887Z,919.1
2017-12-15T13:54:34.507Z,919
2017-12-15T13:55:38.494Z,919.6
2017-12-15T13:56:41.926Z,918.8
2017-12-15T13:57:46.088Z,918.9
2017-12-15T13:58:49.447Z,918.8
2017-12-15T13:59:52.982Z,918.8
2017-12-15T14:00:56.312Z,918.9
2017-12-15T14:01:59.679Z,918.9
2017-12-15T14:03:02.910Z,919
2017-12-15T14:04:06.777Z,919
2017-12-15T14:05:13.803Z,919.1
2017-12-15T14:06:17.111Z,919
2017-12-15T14:07:21.241Z,919.1
2017-12-15T14:08:24.942Z,919.1
2017-12-15T14:09:28.390Z,919.1